KMDW/MDW METAR and TAF weather

Enter ICAO airport designator
Station Type Date Time Source
KMDW METAR 2022/01/26 20:53 UTC NOAA

KMDW 262053Z 20007KT 10SM FEW250 M11/M21 A3038 RMK AO2 SLP312 T11111211 58028


Station Type Date Time Source
KMDW Decoded METAR 2022/01/26 20:53 UTC NOAA

CHICAGO MIDWAY AIRPORT, IL, United States (KMDW) 41-47N 087-45W 188M
Jan 26, 2022 - 03:53 PM EST / 2022.01.26 2053 UTC
Wind: from the SSW (200 degrees) at 8 MPH (7 KT):0
Visibility: 10 mile(s):0
Sky conditions: mostly clear
Temperature: 12.0 F (-11.1 C)
Windchill: 0 F (-18 C):1
Dew Point: -6.0 F (-21.1 C)
Relative Humidity: 43%
Pressure (altimeter): 30.38 in. Hg (1028 hPa)
Pressure tendency: 0.08 inches (2.8 hPa) lower than three hours ago
ob: KMDW 262053Z 20007KT 10SM FEW250 M11/M21 A3038 RMK AO2 SLP312 T11111211 58028
cycle: 21

Station Type Date Time Source
KMDW TAF 2022/01/26 21:06 UTC NOAA

TAF
AMD KMDW 262103Z 2621/2724 21012G17KT P6SM SCT250
FM270800 21012G20KT P6SM SCT040 BKN100 WS020/24045KT
FM271500 24012G18KT P6SM BKN035
FM272000 27010G16KT P6SM BKN030

Example: see airport list